sensor_id;sensor_type;location;lat;lon;timestamp;P1;durP1;ratioP1;P2;durP2;ratioP2
80334;SDS011;69653;52.674;13.574;2023-06-14T00:02:10;4.50;;;2.07;;
80334;SDS011;69653;52.674;13.574;2023-06-14T00:04:36;4.50;;;2.08;;
80334;SDS011;69653;52.674;13.574;2023-06-14T00:07:02;5.32;;;2.20;;
80334;SDS011;69653;52.674;13.574;2023-06-14T00:09:28;4.18;;;2.30;;
80334;SDS011;69653;52.674;13.574;2023-06-14T00:11:53;6.07;;;2.10;;
80334;SDS011;69653;52.674;13.574;2023-06-14T00:14:18;3.97;;;1.87;;
80334;SDS011;69653;52.674;13.574;2023-06-14T00:16:44;5.32;;;2.38;;
80334;SDS011;69653;52.674;13.574;2023-06-14T00:19:09;4.35;;;2.20;;
80334;SDS011;69653;52.674;13.574;2023-06-14T00:21:36;5.13;;;2.30;;
80334;SDS011;69653;52.674;13.574;2023-06-14T00:24:02;5.53;;;2.50;;
80334;SDS011;69653;52.674;13.574;2023-06-14T00:26:27;5.90;;;2.22;;
80334;SDS011;69653;52.674;13.574;2023-06-14T00:28:53;4.93;;;2.40;;
80334;SDS011;69653;52.674;13.574;2023-06-14T00:31:19;4.38;;;2.00;;
80334;SDS011;69653;52.674;13.574;2023-06-14T00:33:45;3.72;;;2.08;;
80334;SDS011;69653;52.674;13.574;2023-06-14T00:36:10;5.43;;;2.50;;
80334;SDS011;69653;52.674;13.574;2023-06-14T00:38:35;9.23;;;2.70;;
80334;SDS011;69653;52.674;13.574;2023-06-14T00:41:01;5.45;;;2.45;;
80334;SDS011;69653;52.674;13.574;2023-06-14T00:43:26;5.60;;;2.30;;
80334;SDS011;69653;52.674;13.574;2023-06-14T00:45:52;4.72;;;2.38;;
80334;SDS011;69653;52.674;13.574;2023-06-14T00:48:17;5.23;;;2.33;;
80334;SDS011;69653;52.674;13.574;2023-06-14T00:50:44;6.88;;;2.90;;
80334;SDS011;69653;52.674;13.574;2023-06-14T00:53:11;5.43;;;2.90;;
80334;SDS011;69653;52.674;13.574;2023-06-14T00:55:37;6.50;;;2.72;;
80334;SDS011;69653;52.674;13.574;2023-06-14T00:58:02;5.53;;;3.10;;
80334;SDS011;69653;52.674;13.574;2023-06-14T01:00:28;6.78;;;3.20;;
80334;SDS011;69653;52.674;13.574;2023-06-14T01:02:53;5.70;;;2.80;;
80334;SDS011;69653;52.674;13.574;2023-06-14T01:05:20;7.03;;;2.60;;
80334;SDS011;69653;52.674;13.574;2023-06-14T01:10:41;9.45;;;2.97;;
80334;SDS011;69653;52.674;13.574;2023-06-14T01:13:20;5.68;;;2.65;;
80334;SDS011;69653;52.674;13.574;2023-06-14T01:15:53;4.80;;;2.40;;
80334;SDS011;69653;52.674;13.574;2023-06-14T01:18:20;5.55;;;2.67;;
80334;SDS011;69653;52.674;13.574;2023-06-14T01:20:47;5.30;;;2.58;;
80334;SDS011;69653;52.674;13.574;2023-06-14T01:23:19;4.93;;;2.63;;
80334;SDS011;69653;52.674;13.574;2023-06-14T01:25:47;5.70;;;2.67;;
80334;SDS011;69653;52.674;13.574;2023-06-14T01:28:15;6.10;;;3.13;;
80334;SDS011;69653;52.674;13.574;2023-06-14T01:30:42;7.05;;;2.83;;
80334;SDS011;69653;52.674;13.574;2023-06-14T01:33:10;6.30;;;3.15;;
80334;SDS011;69653;52.674;13.574;2023-06-14T01:35:38;5.70;;;2.83;;
80334;SDS011;69653;52.674;13.574;2023-06-14T01:38:04;5.72;;;3.25;;
80334;SDS011;69653;52.674;13.574;2023-06-14T01:40:31;5.55;;;2.90;;
80334;SDS011;69653;52.674;13.574;2023-06-14T01:42:59;4.70;;;2.50;;
80334;SDS011;69653;52.674;13.574;2023-06-14T01:45:25;5.90;;;3.10;;
80334;SDS011;69653;52.674;13.574;2023-06-14T01:47:52;8.23;;;2.97;;
80334;SDS011;69653;52.674;13.574;2023-06-14T01:50:18;5.80;;;3.03;;
80334;SDS011;69653;52.674;13.574;2023-06-14T01:52:45;6.82;;;3.22;;
80334;SDS011;69653;52.674;13.574;2023-06-14T01:55:10;6.30;;;3.10;;
80334;SDS011;69653;52.674;13.574;2023-06-14T01:57:36;7.47;;;2.80;;
80334;SDS011;69653;52.674;13.574;2023-06-14T02:00:01;7.43;;;3.03;;
80334;SDS011;69653;52.674;13.574;2023-06-14T02:02:28;5.93;;;2.85;;
80334;SDS011;69653;52.674;13.574;2023-06-14T02:04:54;8.00;;;2.93;;
80334;SDS011;69653;52.674;13.574;2023-06-14T02:07:22;6.53;;;3.13;;
80334;SDS011;69653;52.674;13.574;2023-06-14T02:09:48;8.57;;;3.53;;
80334;SDS011;69653;52.674;13.574;2023-06-14T02:12:13;7.70;;;4.43;;
80334;SDS011;69653;52.674;13.574;2023-06-14T02:14:38;11.20;;;3.42;;
80334;SDS011;69653;52.674;13.574;2023-06-14T02:17:04;7.07;;;3.25;;
80334;SDS011;69653;52.674;13.574;2023-06-14T02:19:29;6.50;;;3.22;;
80334;SDS011;69653;52.674;13.574;2023-06-14T02:21:55;7.37;;;3.23;;
80334;SDS011;69653;52.674;13.574;2023-06-14T02:24:20;7.43;;;3.23;;
80334;SDS011;69653;52.674;13.574;2023-06-14T02:26:45;7.30;;;3.40;;
80334;SDS011;69653;52.674;13.574;2023-06-14T02:29:11;5.53;;;3.23;;
80334;SDS011;69653;52.674;13.574;2023-06-14T02:31:39;7.45;;;4.00;;
80334;SDS011;69653;52.674;13.574;2023-06-14T02:34:05;5.97;;;3.30;;
80334;SDS011;69653;52.674;13.574;2023-06-14T02:36:30;5.70;;;3.30;;
80334;SDS011;69653;52.674;13.574;2023-06-14T02:38:56;5.90;;;3.83;;
80334;SDS011;69653;52.674;13.574;2023-06-14T02:41:23;5.53;;;3.10;;
80334;SDS011;69653;52.674;13.574;2023-06-14T02:43:48;6.63;;;3.47;;
80334;SDS011;69653;52.674;13.574;2023-06-14T02:46:14;6.50;;;3.40;;
80334;SDS011;69653;52.674;13.574;2023-06-14T02:48:40;6.07;;;3.25;;
80334;SDS011;69653;52.674;13.574;2023-06-14T02:51:05;7.60;;;3.70;;
80334;SDS011;69653;52.674;13.574;2023-06-14T02:53:31;6.95;;;3.03;;
80334;SDS011;69653;52.674;13.574;2023-06-14T02:55:56;6.17;;;3.37;;
80334;SDS011;69653;52.674;13.574;2023-06-14T02:58:21;10.73;;;3.77;;
80334;SDS011;69653;52.674;13.574;2023-06-14T03:00:49;6.57;;;3.83;;
80334;SDS011;69653;52.674;13.574;2023-06-14T03:03:17;6.03;;;3.65;;
80334;SDS011;69653;52.674;13.574;2023-06-14T03:05:44;6.18;;;3.55;;
80334;SDS011;69653;52.674;13.574;2023-06-14T03:08:12;8.77;;;3.50;;
80334;SDS011;69653;52.674;13.574;2023-06-14T03:10:42;6.70;;;3.45;;
80334;SDS011;69653;52.674;13.574;2023-06-14T03:13:08;7.68;;;3.97;;
80334;SDS011;69653;52.674;13.574;2023-06-14T03:15:35;6.55;;;4.13;;
80334;SDS011;69653;52.674;13.574;2023-06-14T03:18:01;6.32;;;4.00;;
80334;SDS011;69653;52.674;13.574;2023-06-14T03:20:26;7.93;;;4.10;;
80334;SDS011;69653;52.674;13.574;2023-06-14T03:22:54;7.55;;;3.40;;
80334;SDS011;69653;52.674;13.574;2023-06-14T03:25:19;6.95;;;3.72;;
80334;SDS011;69653;52.674;13.574;2023-06-14T03:27:46;6.07;;;4.10;;
80334;SDS011;69653;52.674;13.574;2023-06-14T03:30:12;8.13;;;3.78;;
80334;SDS011;69653;52.674;13.574;2023-06-14T03:32:37;7.97;;;4.05;;
80334;SDS011;69653;52.674;13.574;2023-06-14T03:35:03;7.17;;;3.70;;
80334;SDS011;69653;52.674;13.574;2023-06-14T03:37:29;8.10;;;4.55;;
80334;SDS011;69653;52.674;13.574;2023-06-14T03:39:54;7.47;;;3.77;;
80334;SDS011;69653;52.674;13.574;2023-06-14T03:42:19;9.97;;;4.50;;
80334;SDS011;69653;52.674;13.574;2023-06-14T03:44:44;6.13;;;3.63;;
80334;SDS011;69653;52.674;13.574;2023-06-14T03:47:10;7.37;;;4.23;;
80334;SDS011;69653;52.674;13.574;2023-06-14T03:49:35;7.00;;;4.10;;
80334;SDS011;69653;52.674;13.574;2023-06-14T03:52:01;6.97;;;4.22;;
80334;SDS011;69653;52.674;13.574;2023-06-14T03:54:27;6.32;;;4.03;;
80334;SDS011;69653;52.674;13.574;2023-06-14T03:56:53;6.10;;;3.90;;
80334;SDS011;69653;52.674;13.574;2023-06-14T03:59:19;7.40;;;4.15;;
80334;SDS011;69653;52.674;13.574;2023-06-14T04:01:44;8.45;;;4.57;;
80334;SDS011;69653;52.674;13.574;2023-06-14T04:04:11;8.63;;;3.85;;
80334;SDS011;69653;52.674;13.574;2023-06-14T04:06:37;7.78;;;3.92;;
80334;SDS011;69653;52.674;13.574;2023-06-14T04:09:02;7.67;;;4.40;;
80334;SDS011;69653;52.674;13.574;2023-06-14T04:11:27;7.40;;;3.77;;
80334;SDS011;69653;52.674;13.574;2023-06-14T04:13:53;8.20;;;4.07;;
80334;SDS011;69653;52.674;13.574;2023-06-14T04:16:21;8.93;;;3.78;;
80334;SDS011;69653;52.674;13.574;2023-06-14T04:18:46;7.60;;;4.22;;
80334;SDS011;69653;52.674;13.574;2023-06-14T04:21:13;8.55;;;3.85;;
80334;SDS011;69653;52.674;13.574;2023-06-14T04:23:38;6.70;;;4.15;;
80334;SDS011;69653;52.674;13.574;2023-06-14T04:26:04;6.60;;;3.47;;
80334;SDS011;69653;52.674;13.574;2023-06-14T04:28:29;6.18;;;3.60;;
80334;SDS011;69653;52.674;13.574;2023-06-14T04:30:55;6.57;;;3.47;;
80334;SDS011;69653;52.674;13.574;2023-06-14T04:33:21;9.23;;;3.60;;
80334;SDS011;69653;52.674;13.574;2023-06-14T04:35:47;6.90;;;3.65;;
80334;SDS011;69653;52.674;13.574;2023-06-14T04:38:13;9.27;;;3.60;;
80334;SDS011;69653;52.674;13.574;2023-06-14T04:40:41;6.68;;;3.55;;
80334;SDS011;69653;52.674;13.574;2023-06-14T04:43:11;8.25;;;3.67;;
80334;SDS011;69653;52.674;13.574;2023-06-14T04:45:42;7.13;;;3.75;;
80334;SDS011;69653;52.674;13.574;2023-06-14T04:48:10;9.35;;;4.00;;
80334;SDS011;69653;52.674;13.574;2023-06-14T04:50:35;6.07;;;3.60;;
80334;SDS011;69653;52.674;13.574;2023-06-14T04:53:01;8.70;;;4.10;;
80334;SDS011;69653;52.674;13.574;2023-06-14T04:55:26;8.55;;;4.30;;
80334;SDS011;69653;52.674;13.574;2023-06-14T04:57:52;7.67;;;4.37;;
80334;SDS011;69653;52.674;13.574;2023-06-14T05:00:20;6.72;;;3.50;;
80334;SDS011;69653;52.674;13.574;2023-06-14T05:02:46;9.30;;;3.90;;
80334;SDS011;69653;52.674;13.574;2023-06-14T05:05:12;8.88;;;3.92;;
80334;SDS011;69653;52.674;13.574;2023-06-14T05:07:37;8.48;;;3.67;;
80334;SDS011;69653;52.674;13.574;2023-06-14T05:10:03;6.10;;;3.60;;
80334;SDS011;69653;52.674;13.574;2023-06-14T05:12:28;8.77;;;3.67;;
80334;SDS011;69653;52.674;13.574;2023-06-14T05:14:54;7.13;;;4.78;;
80334;SDS011;69653;52.674;13.574;2023-06-14T05:17:19;11.13;;;4.17;;
80334;SDS011;69653;52.674;13.574;2023-06-14T05:19:45;7.70;;;3.45;;
80334;SDS011;69653;52.674;13.574;2023-06-14T05:22:11;8.75;;;3.63;;
80334;SDS011;69653;52.674;13.574;2023-06-14T05:24:36;6.80;;;3.20;;
80334;SDS011;69653;52.674;13.574;2023-06-14T05:27:02;6.82;;;3.65;;
80334;SDS011;69653;52.674;13.574;2023-06-14T05:29:28;7.57;;;3.90;;
80334;SDS011;69653;52.674;13.574;2023-06-14T05:31:53;6.17;;;3.23;;
80334;SDS011;69653;52.674;13.574;2023-06-14T05:34:18;7.23;;;3.73;;
80334;SDS011;69653;52.674;13.574;2023-06-14T05:36:44;6.57;;;3.13;;
80334;SDS011;69653;52.674;13.574;2023-06-14T05:39:09;7.60;;;3.75;;
80334;SDS011;69653;52.674;13.574;2023-06-14T05:41:35;6.00;;;3.67;;
80334;SDS011;69653;52.674;13.574;2023-06-14T05:44:00;7.87;;;4.40;;
80334;SDS011;69653;52.674;13.574;2023-06-14T05:46:26;5.78;;;3.38;;
80334;SDS011;69653;52.674;13.574;2023-06-14T05:48:52;8.67;;;3.93;;
80334;SDS011;69653;52.674;13.574;2023-06-14T05:51:18;9.18;;;3.30;;
80334;SDS011;69653;52.674;13.574;2023-06-14T05:53:44;10.40;;;4.13;;
80334;SDS011;69653;52.674;13.574;2023-06-14T05:56:11;7.05;;;3.30;;
80334;SDS011;69653;52.674;13.574;2023-06-14T05:58:36;6.95;;;4.00;;
80334;SDS011;69653;52.674;13.574;2023-06-14T06:01:01;7.83;;;3.77;;
80334;SDS011;69653;52.674;13.574;2023-06-14T06:03:27;7.03;;;3.70;;
80334;SDS011;69653;52.674;13.574;2023-06-14T06:05:54;8.18;;;3.50;;
80334;SDS011;69653;52.674;13.574;2023-06-14T06:08:19;6.85;;;3.83;;
80334;SDS011;69653;52.674;13.574;2023-06-14T06:10:45;17.85;;;5.35;;
80334;SDS011;69653;52.674;13.574;2023-06-14T06:13:11;22.55;;;6.18;;
80334;SDS011;69653;52.674;13.574;2023-06-14T06:15:36;20.47;;;5.30;;
80334;SDS011;69653;52.674;13.574;2023-06-14T06:18:02;15.68;;;3.83;;
80334;SDS011;69653;52.674;13.574;2023-06-14T06:20:27;10.77;;;4.00;;
80334;SDS011;69653;52.674;13.574;2023-06-14T06:22:54;7.95;;;3.67;;
80334;SDS011;69653;52.674;13.574;2023-06-14T06:25:19;8.98;;;3.63;;
80334;SDS011;69653;52.674;13.574;2023-06-14T06:27:44;9.30;;;3.70;;
80334;SDS011;69653;52.674;13.574;2023-06-14T06:30:10;10.60;;;3.55;;
80334;SDS011;69653;52.674;13.574;2023-06-14T06:32:36;6.50;;;3.50;;
80334;SDS011;69653;52.674;13.574;2023-06-14T06:35:01;8.00;;;3.73;;
80334;SDS011;69653;52.674;13.574;2023-06-14T06:37:27;9.27;;;3.67;;
80334;SDS011;69653;52.674;13.574;2023-06-14T06:39:52;8.40;;;3.97;;
80334;SDS011;69653;52.674;13.574;2023-06-14T06:42:18;10.27;;;3.70;;
80334;SDS011;69653;52.674;13.574;2023-06-14T06:44:43;6.77;;;3.47;;
80334;SDS011;69653;52.674;13.574;2023-06-14T06:47:08;5.97;;;3.40;;
80334;SDS011;69653;52.674;13.574;2023-06-14T06:49:36;6.47;;;3.38;;
80334;SDS011;69653;52.674;13.574;2023-06-14T06:52:05;8.07;;;3.40;;
80334;SDS011;69653;52.674;13.574;2023-06-14T06:54:31;7.80;;;4.40;;
80334;SDS011;69653;52.674;13.574;2023-06-14T06:56:57;9.05;;;3.95;;
80334;SDS011;69653;52.674;13.574;2023-06-14T06:59:23;10.95;;;3.80;;
80334;SDS011;69653;52.674;13.574;2023-06-14T07:01:49;6.90;;;4.05;;
80334;SDS011;69653;52.674;13.574;2023-06-14T07:04:14;6.97;;;3.47;;
80334;SDS011;69653;52.674;13.574;2023-06-14T07:09:07;8.93;;;4.43;;
80334;SDS011;69653;52.674;13.574;2023-06-14T07:14:02;6.00;;;3.50;;
80334;SDS011;69653;52.674;13.574;2023-06-14T07:16:27;7.03;;;3.97;;
80334;SDS011;69653;52.674;13.574;2023-06-14T07:18:53;8.70;;;3.97;;
80334;SDS011;69653;52.674;13.574;2023-06-14T07:21:18;8.43;;;3.80;;
80334;SDS011;69653;52.674;13.574;2023-06-14T07:23:43;8.37;;;3.70;;
80334;SDS011;69653;52.674;13.574;2023-06-14T07:26:09;6.85;;;3.60;;
80334;SDS011;69653;52.674;13.574;2023-06-14T07:28:34;7.30;;;3.60;;
80334;SDS011;69653;52.674;13.574;2023-06-14T07:31:00;8.35;;;3.80;;
80334;SDS011;69653;52.674;13.574;2023-06-14T07:33:26;8.32;;;4.63;;
80334;SDS011;69653;52.674;13.574;2023-06-14T07:35:51;7.67;;;3.87;;
80334;SDS011;69653;52.674;13.574;2023-06-14T07:38:17;5.68;;;3.45;;
80334;SDS011;69653;52.674;13.574;2023-06-14T07:40:43;7.25;;;3.53;;
80334;SDS011;69653;52.674;13.574;2023-06-14T07:43:08;6.53;;;3.65;;
80334;SDS011;69653;52.674;13.574;2023-06-14T07:45:34;8.45;;;3.50;;
80334;SDS011;69653;52.674;13.574;2023-06-14T07:47:59;7.00;;;3.10;;
80334;SDS011;69653;52.674;13.574;2023-06-14T07:50:25;7.30;;;3.20;;
80334;SDS011;69653;52.674;13.574;2023-06-14T07:52:50;9.13;;;3.22;;
80334;SDS011;69653;52.674;13.574;2023-06-14T07:55:15;6.07;;;3.23;;
80334;SDS011;69653;52.674;13.574;2023-06-14T07:57:42;6.10;;;3.22;;
80334;SDS011;69653;52.674;13.574;2023-06-14T08:00:09;7.20;;;3.50;;
80334;SDS011;69653;52.674;13.574;2023-06-14T08:02:40;6.43;;;3.13;;
80334;SDS011;69653;52.674;13.574;2023-06-14T08:05:05;5.75;;;3.05;;
80334;SDS011;69653;52.674;13.574;2023-06-14T08:07:31;7.22;;;3.85;;
80334;SDS011;69653;52.674;13.574;2023-06-14T08:09:56;5.77;;;3.50;;
80334;SDS011;69653;52.674;13.574;2023-06-14T08:12:22;6.57;;;2.83;;
80334;SDS011;69653;52.674;13.574;2023-06-14T08:14:47;9.40;;;3.73;;
80334;SDS011;69653;52.674;13.574;2023-06-14T08:17:12;7.57;;;2.90;;
80334;SDS011;69653;52.674;13.574;2023-06-14T08:19:38;7.67;;;3.00;;
80334;SDS011;69653;52.674;13.574;2023-06-14T08:22:03;13.30;;;6.07;;
80334;SDS011;69653;52.674;13.574;2023-06-14T08:24:29;6.20;;;2.95;;
80334;SDS011;69653;52.674;13.574;2023-06-14T08:26:54;5.10;;;2.93;;
80334;SDS011;69653;52.674;13.574;2023-06-14T08:29:21;5.35;;;2.65;;
80334;SDS011;69653;52.674;13.574;2023-06-14T08:31:46;5.68;;;2.90;;
80334;SDS011;69653;52.674;13.574;2023-06-14T08:34:12;4.97;;;2.50;;
80334;SDS011;69653;52.674;13.574;2023-06-14T08:36:37;7.70;;;2.33;;
80334;SDS011;69653;52.674;13.574;2023-06-14T08:39:03;5.80;;;2.50;;
80334;SDS011;69653;52.674;13.574;2023-06-14T08:41:28;5.05;;;2.38;;
80334;SDS011;69653;52.674;13.574;2023-06-14T08:43:54;5.18;;;2.33;;
80334;SDS011;69653;52.674;13.574;2023-06-14T08:46:20;5.32;;;2.33;;
80334;SDS011;69653;52.674;13.574;2023-06-14T08:48:50;7.22;;;2.58;;
80334;SDS011;69653;52.674;13.574;2023-06-14T08:51:20;6.40;;;2.70;;
80334;SDS011;69653;52.674;13.574;2023-06-14T08:53:49;4.63;;;2.25;;
80334;SDS011;69653;52.674;13.574;2023-06-14T08:56:26;6.72;;;2.50;;
80334;SDS011;69653;52.674;13.574;2023-06-14T08:58:52;6.47;;;2.80;;
80334;SDS011;69653;52.674;13.574;2023-06-14T09:01:18;8.93;;;2.83;;
80334;SDS011;69653;52.674;13.574;2023-06-14T09:03:44;5.45;;;2.72;;
80334;SDS011;69653;52.674;13.574;2023-06-14T09:06:10;7.05;;;2.95;;
80334;SDS011;69653;52.674;13.574;2023-06-14T09:08:42;5.70;;;3.15;;
80334;SDS011;69653;52.674;13.574;2023-06-14T09:11:10;6.97;;;2.72;;
80334;SDS011;69653;52.674;13.574;2023-06-14T09:13:37;5.47;;;2.70;;
80334;SDS011;69653;52.674;13.574;2023-06-14T09:16:03;5.20;;;2.70;;
80334;SDS011;69653;52.674;13.574;2023-06-14T09:18:34;5.43;;;3.25;;
80334;SDS011;69653;52.674;13.574;2023-06-14T09:21:06;7.82;;;2.92;;
80334;SDS011;69653;52.674;13.574;2023-06-14T09:23:38;6.70;;;2.90;;
80334;SDS011;69653;52.674;13.574;2023-06-14T09:26:12;6.38;;;3.00;;
80334;SDS011;69653;52.674;13.574;2023-06-14T09:28:42;5.82;;;3.05;;
80334;SDS011;69653;52.674;13.574;2023-06-14T09:31:11;8.68;;;3.28;;
80334;SDS011;69653;52.674;13.574;2023-06-14T09:33:38;8.52;;;3.67;;
80334;SDS011;69653;52.674;13.574;2023-06-14T09:36:03;8.02;;;3.17;;
80334;SDS011;69653;52.674;13.574;2023-06-14T09:38:34;7.40;;;2.90;;
80334;SDS011;69653;52.674;13.574;2023-06-14T09:41:00;8.57;;;3.45;;
80334;SDS011;69653;52.674;13.574;2023-06-14T09:43:28;6.15;;;3.03;;
80334;SDS011;69653;52.674;13.574;2023-06-14T09:45:54;6.13;;;3.22;;
80334;SDS011;69653;52.674;13.574;2023-06-14T09:48:19;6.80;;;3.13;;
80334;SDS011;69653;52.674;13.574;2023-06-14T09:50:46;8.10;;;3.20;;
80334;SDS011;69653;52.674;13.574;2023-06-14T09:53:14;8.85;;;3.75;;
80334;SDS011;69653;52.674;13.574;2023-06-14T09:55:41;6.97;;;3.10;;
80334;SDS011;69653;52.674;13.574;2023-06-14T09:58:08;7.22;;;3.03;;
80334;SDS011;69653;52.674;13.574;2023-06-14T10:00:35;7.10;;;2.97;;
80334;SDS011;69653;52.674;13.574;2023-06-14T10:03:12;6.30;;;2.97;;
80334;SDS011;69653;52.674;13.574;2023-06-14T10:05:39;6.78;;;3.10;;
80334;SDS011;69653;52.674;13.574;2023-06-14T10:08:08;7.75;;;3.08;;
80334;SDS011;69653;52.674;13.574;2023-06-14T10:10:35;8.02;;;3.10;;
80334;SDS011;69653;52.674;13.574;2023-06-14T10:13:03;7.15;;;3.22;;
80334;SDS011;69653;52.674;13.574;2023-06-14T10:15:32;7.60;;;3.33;;
80334;SDS011;69653;52.674;13.574;2023-06-14T10:18:28;7.80;;;3.47;;
80334;SDS011;69653;52.674;13.574;2023-06-14T10:22:02;7.15;;;3.42;;
80334;SDS011;69653;52.674;13.574;2023-06-14T10:24:15;10.15;;;3.78;;
80334;SDS011;69653;52.674;13.574;2023-06-14T10:26:53;6.72;;;2.90;;
80334;SDS011;69653;52.674;13.574;2023-06-14T10:29:19;6.18;;;3.03;;
80334;SDS011;69653;52.674;13.574;2023-06-14T10:31:45;7.35;;;3.38;;
80334;SDS011;69653;52.674;13.574;2023-06-14T10:34:12;9.32;;;3.13;;
80334;SDS011;69653;52.674;13.574;2023-06-14T10:36:50;5.63;;;3.17;;
80334;SDS011;69653;52.674;13.574;2023-06-14T10:39:27;6.88;;;3.53;;
80334;SDS011;69653;52.674;13.574;2023-06-14T10:41:54;5.10;;;2.60;;
80334;SDS011;69653;52.674;13.574;2023-06-14T10:46:48;7.73;;;3.10;;
80334;SDS011;69653;52.674;13.574;2023-06-14T10:49:21;8.15;;;3.53;;
80334;SDS011;69653;52.674;13.574;2023-06-14T10:52:07;8.50;;;3.10;;
80334;SDS011;69653;52.674;13.574;2023-06-14T10:57:26;8.60;;;2.70;;
80334;SDS011;69653;52.674;13.574;2023-06-14T10:59:52;7.88;;;2.80;;
80334;SDS011;69653;52.674;13.574;2023-06-14T11:07:42;6.88;;;2.60;;
80334;SDS011;69653;52.674;13.574;2023-06-14T11:10:38;6.80;;;2.83;;
80334;SDS011;69653;52.674;13.574;2023-06-14T11:13:08;7.32;;;2.83;;
80334;SDS011;69653;52.674;13.574;2023-06-14T11:15:35;7.72;;;2.92;;
80334;SDS011;69653;52.674;13.574;2023-06-14T11:18:02;7.25;;;2.80;;
80334;SDS011;69653;52.674;13.574;2023-06-14T11:20:30;7.07;;;2.85;;
80334;SDS011;69653;52.674;13.574;2023-06-14T11:22:56;6.45;;;2.67;;
80334;SDS011;69653;52.674;13.574;2023-06-14T11:25:21;6.27;;;2.53;;
80334;SDS011;69653;52.674;13.574;2023-06-14T11:27:48;6.47;;;3.00;;
80334;SDS011;69653;52.674;13.574;2023-06-14T11:30:15;9.48;;;3.10;;
80334;SDS011;69653;52.674;13.574;2023-06-14T11:32:40;5.35;;;2.80;;
80334;SDS011;69653;52.674;13.574;2023-06-14T11:35:06;6.70;;;2.60;;
80334;SDS011;69653;52.674;13.574;2023-06-14T11:37:34;7.53;;;2.30;;
80334;SDS011;69653;52.674;13.574;2023-06-14T11:40:02;5.82;;;3.05;;
80334;SDS011;69653;52.674;13.574;2023-06-14T11:42:33;5.30;;;2.47;;
80334;SDS011;69653;52.674;13.574;2023-06-14T11:44:58;5.18;;;2.58;;
80334;SDS011;69653;52.674;13.574;2023-06-14T11:47:24;8.13;;;2.50;;
80334;SDS011;69653;52.674;13.574;2023-06-14T11:49:56;8.02;;;3.38;;
80334;SDS011;69653;52.674;13.574;2023-06-14T11:52:23;7.57;;;2.78;;
80334;SDS011;69653;52.674;13.574;2023-06-14T11:54:48;6.17;;;2.50;;
80334;SDS011;69653;52.674;13.574;2023-06-14T11:57:14;7.40;;;2.60;;
80334;SDS011;69653;52.674;13.574;2023-06-14T11:59:40;9.02;;;2.83;;
80334;SDS011;69653;52.674;13.574;2023-06-14T12:02:06;8.75;;;2.97;;
80334;SDS011;69653;52.674;13.574;2023-06-14T12:04:32;5.80;;;2.63;;
80334;SDS011;69653;52.674;13.574;2023-06-14T12:07:08;8.00;;;2.80;;
80334;SDS011;69653;52.674;13.574;2023-06-14T12:12:24;7.95;;;2.55;;
80334;SDS011;69653;52.674;13.574;2023-06-14T12:14:52;7.57;;;3.10;;
80334;SDS011;69653;52.674;13.574;2023-06-14T12:17:19;5.70;;;2.78;;
80334;SDS011;69653;52.674;13.574;2023-06-14T12:19:45;5.85;;;2.63;;
80334;SDS011;69653;52.674;13.574;2023-06-14T12:22:14;6.07;;;2.75;;
80334;SDS011;69653;52.674;13.574;2023-06-14T12:24:43;7.28;;;2.85;;
80334;SDS011;69653;52.674;13.574;2023-06-14T12:27:08;5.55;;;2.35;;
80334;SDS011;69653;52.674;13.574;2023-06-14T12:29:36;6.95;;;2.78;;
80334;SDS011;69653;52.674;13.574;2023-06-14T12:32:02;5.80;;;2.90;;
80334;SDS011;69653;52.674;13.574;2023-06-14T12:34:27;7.33;;;2.77;;
80334;SDS011;69653;52.674;13.574;2023-06-14T12:36:53;10.63;;;2.87;;
80334;SDS011;69653;52.674;13.574;2023-06-14T12:39:19;10.30;;;2.90;;
80334;SDS011;69653;52.674;13.574;2023-06-14T12:41:45;8.15;;;2.75;;
80334;SDS011;69653;52.674;13.574;2023-06-14T12:44:11;5.68;;;2.42;;
80334;SDS011;69653;52.674;13.574;2023-06-14T12:46:37;6.60;;;2.70;;
80334;SDS011;69653;52.674;13.574;2023-06-14T12:49:04;5.68;;;2.50;;
80334;SDS011;69653;52.674;13.574;2023-06-14T12:51:30;7.25;;;2.22;;
80334;SDS011;69653;52.674;13.574;2023-06-14T12:53:56;7.65;;;2.65;;
80334;SDS011;69653;52.674;13.574;2023-06-14T12:56:21;7.47;;;2.50;;
80334;SDS011;69653;52.674;13.574;2023-06-14T12:58:47;9.75;;;2.50;;
80334;SDS011;69653;52.674;13.574;2023-06-14T13:01:12;6.50;;;2.40;;
80334;SDS011;69653;52.674;13.574;2023-06-14T13:03:37;10.93;;;2.50;;
80334;SDS011;69653;52.674;13.574;2023-06-14T13:06:03;5.97;;;2.67;;
80334;SDS011;69653;52.674;13.574;2023-06-14T13:08:29;5.32;;;2.33;;
80334;SDS011;69653;52.674;13.574;2023-06-14T13:10:55;6.13;;;2.45;;
80334;SDS011;69653;52.674;13.574;2023-06-14T13:13:20;6.53;;;2.30;;
80334;SDS011;69653;52.674;13.574;2023-06-14T13:15:46;17.23;;;3.38;;
80334;SDS011;69653;52.674;13.574;2023-06-14T13:18:12;6.57;;;2.17;;
80334;SDS011;69653;52.674;13.574;2023-06-14T13:20:40;6.72;;;2.50;;
80334;SDS011;69653;52.674;13.574;2023-06-14T13:23:06;4.60;;;2.05;;
80334;SDS011;69653;52.674;13.574;2023-06-14T13:25:36;7.72;;;2.50;;
80334;SDS011;69653;52.674;13.574;2023-06-14T13:28:05;6.18;;;2.30;;
80334;SDS011;69653;52.674;13.574;2023-06-14T13:30:31;6.40;;;2.85;;
80334;SDS011;69653;52.674;13.574;2023-06-14T13:32:57;5.63;;;2.13;;
80334;SDS011;69653;52.674;13.574;2023-06-14T13:35:23;6.18;;;2.20;;
80334;SDS011;69653;52.674;13.574;2023-06-14T13:37:50;5.30;;;2.50;;
80334;SDS011;69653;52.674;13.574;2023-06-14T13:40:15;6.90;;;2.28;;
80334;SDS011;69653;52.674;13.574;2023-06-14T13:42:41;8.80;;;2.50;;
80334;SDS011;69653;52.674;13.574;2023-06-14T13:45:07;7.22;;;2.60;;
80334;SDS011;69653;52.674;13.574;2023-06-14T13:47:33;9.05;;;2.78;;
80334;SDS011;69653;52.674;13.574;2023-06-14T13:49:58;6.70;;;2.70;;
80334;SDS011;69653;52.674;13.574;2023-06-14T13:52:24;8.00;;;2.78;;
80334;SDS011;69653;52.674;13.574;2023-06-14T13:54:51;6.43;;;2.58;;
80334;SDS011;69653;52.674;13.574;2023-06-14T13:57:17;8.50;;;2.58;;
80334;SDS011;69653;52.674;13.574;2023-06-14T13:59:42;5.90;;;2.45;;
80334;SDS011;69653;52.674;13.574;2023-06-14T14:02:11;6.03;;;2.42;;
80334;SDS011;69653;52.674;13.574;2023-06-14T14:04:37;6.38;;;2.55;;
80334;SDS011;69653;52.674;13.574;2023-06-14T14:07:03;5.53;;;2.50;;
80334;SDS011;69653;52.674;13.574;2023-06-14T14:09:29;5.93;;;2.60;;
80334;SDS011;69653;52.674;13.574;2023-06-14T14:11:55;5.03;;;2.55;;
80334;SDS011;69653;52.674;13.574;2023-06-14T14:14:21;7.65;;;4.47;;
80334;SDS011;69653;52.674;13.574;2023-06-14T14:16:46;12.03;;;6.40;;
80334;SDS011;69653;52.674;13.574;2023-06-14T14:19:11;8.97;;;3.50;;
80334;SDS011;69653;52.674;13.574;2023-06-14T14:21:36;6.27;;;2.87;;
80334;SDS011;69653;52.674;13.574;2023-06-14T14:24:02;7.70;;;2.53;;
80334;SDS011;69653;52.674;13.574;2023-06-14T14:26:28;6.25;;;2.80;;
80334;SDS011;69653;52.674;13.574;2023-06-14T14:28:53;6.27;;;2.40;;
80334;SDS011;69653;52.674;13.574;2023-06-14T14:31:19;6.83;;;2.53;;
80334;SDS011;69653;52.674;13.574;2023-06-14T14:33:44;4.30;;;2.22;;
80334;SDS011;69653;52.674;13.574;2023-06-14T14:36:09;6.03;;;2.80;;
80334;SDS011;69653;52.674;13.574;2023-06-14T14:38:35;6.13;;;2.30;;
80334;SDS011;69653;52.674;13.574;2023-06-14T14:41:00;7.53;;;2.55;;
80334;SDS011;69653;52.674;13.574;2023-06-14T14:43:26;6.03;;;2.47;;
80334;SDS011;69653;52.674;13.574;2023-06-14T14:45:51;5.88;;;2.30;;
80334;SDS011;69653;52.674;13.574;2023-06-14T14:48:17;7.80;;;2.60;;
80334;SDS011;69653;52.674;13.574;2023-06-14T14:50:42;4.45;;;1.98;;
80334;SDS011;69653;52.674;13.574;2023-06-14T14:53:08;8.40;;;2.30;;